createdAt,value
2022-08-17T00:00:49.489Z,16.70
2022-08-17T00:01:52.030Z,11.53
2022-08-17T00:03:07.666Z,11.39
2022-08-17T00:04:11.905Z,8.84
2022-08-17T00:05:15.403Z,8.09
2022-08-17T00:06:25.696Z,8.33
2022-08-17T00:07:28.147Z,10.60
2022-08-17T00:08:37.295Z,7.81
2022-08-17T00:09:39.487Z,11.33
2022-08-17T00:10:44.280Z,8.83
2022-08-17T00:12:34.601Z,9.91
2022-08-17T00:12:52.806Z,11.83
2022-08-17T00:13:58.623Z,11.91
2022-08-17T00:15:01.546Z,8.54
2022-08-17T00:19:01.719Z,10.15
2022-08-17T00:19:25.433Z,12.05
2022-08-17T00:20:32.029Z,9.04
2022-08-17T00:22:32.437Z,7.92
2022-08-17T00:22:40.808Z,10.03
2022-08-17T00:23:47.777Z,10.96
2022-08-17T00:24:48.128Z,13.26
2022-08-17T00:25:50.754Z,9.89
2022-08-17T00:26:53.314Z,8.06
2022-08-17T00:27:55.583Z,10.40
2022-08-17T00:28:59.763Z,12.02
2022-08-17T00:30:03.127Z,11.11
2022-08-17T00:31:07.557Z,10.08
2022-08-17T00:33:13.956Z,7.94
2022-08-17T00:33:17.732Z,10.01
2022-08-17T00:34:19.997Z,11.22
2022-08-17T00:35:24.011Z,11.16
2022-08-17T00:36:27.590Z,8.23
2022-08-17T00:37:29.771Z,12.01
2022-08-17T00:38:32.575Z,10.29
2022-08-17T00:39:34.960Z,11.10
2022-08-17T00:40:44.867Z,12.64
2022-08-17T00:41:47.960Z,9.49
2022-08-17T00:42:51.023Z,11.91
2022-08-17T00:44:00.174Z,12.91
2022-08-17T00:45:05.368Z,7.83
2022-08-17T00:46:16.082Z,8.63
2022-08-17T00:47:18.814Z,7.14
2022-08-17T00:48:28.933Z,11.75
2022-08-17T00:49:26.120Z,6.81
2022-08-17T00:50:29.743Z,8.63
2022-08-17T00:51:43.861Z,10.74
2022-08-17T00:52:55.605Z,8.93
2022-08-17T00:54:01.467Z,9.56
2022-08-17T00:55:05.662Z,8.63
2022-08-17T00:56:21.082Z,8.25
2022-08-17T00:57:42.244Z,10.85
2022-08-17T00:58:44.719Z,8.13
2022-08-17T01:00:01.892Z,8.59
2022-08-17T01:00:58.733Z,9.43
2022-08-17T01:02:02.139Z,8.84
2022-08-17T01:03:16.974Z,7.94
2022-08-17T01:04:21.721Z,10.79
2022-08-17T01:05:27.055Z,9.26
2022-08-17T01:06:32.834Z,11.06
2022-08-17T01:07:35.367Z,12.81
2022-08-17T01:08:39.943Z,11.76
2022-08-17T01:09:43.497Z,8.87
2022-08-17T01:11:59.519Z,10.41
2022-08-17T01:13:02.702Z,10.39
2022-08-17T01:14:05.330Z,10.04
2022-08-17T01:15:08.408Z,8.76
2022-08-17T01:16:23.572Z,10.74
2022-08-17T01:17:25.978Z,9.20
2022-08-17T01:18:28.606Z,8.70
2022-08-17T01:19:34.444Z,9.20
2022-08-17T01:20:48.314Z,7.74
2022-08-17T01:22:03.649Z,8.39
2022-08-17T01:23:06.044Z,10.60
2022-08-17T01:24:08.315Z,9.51
2022-08-17T01:25:11.873Z,13.37
2022-08-17T01:26:15.089Z,8.47
2022-08-17T01:27:18.748Z,8.89
2022-08-17T01:28:52.663Z,11.03
2022-08-17T01:29:31.645Z,10.08
2022-08-17T01:30:57.342Z,9.33
2022-08-17T01:31:46.289Z,9.58
2022-08-17T01:32:48.933Z,7.96
2022-08-17T01:33:51.579Z,8.79
2022-08-17T01:34:54.797Z,8.59
2022-08-17T01:35:57.802Z,14.41
2022-08-17T01:37:00.532Z,10.57
2022-08-17T01:38:02.786Z,8.95
2022-08-17T01:39:08.169Z,9.30
2022-08-17T01:40:23.388Z,9.56
2022-08-17T01:41:26.545Z,10.07
2022-08-17T01:42:41.578Z,10.08
2022-08-17T01:43:53.079Z,10.72
2022-08-17T01:44:58.958Z,9.71
2022-08-17T01:46:04.043Z,10.96
2022-08-17T01:47:06.663Z,9.70
2022-08-17T01:48:11.416Z,7.90
2022-08-17T01:49:13.999Z,10.14
2022-08-17T01:50:20.083Z,9.31
2022-08-17T01:51:24.620Z,8.59
2022-08-17T01:52:26.995Z,8.27
2022-08-17T01:53:35.976Z,8.70
2022-08-17T01:54:41.220Z,9.43
2022-08-17T01:56:02.498Z,10.13
2022-08-17T01:57:04.893Z,9.98
2022-08-17T01:58:08.192Z,10.42
2022-08-17T01:59:10.969Z,10.44
2022-08-17T02:00:14.475Z,9.81
2022-08-17T02:01:19.657Z,14.14
2022-08-17T02:02:30.538Z,11.55
2022-08-17T02:03:26.876Z,10.36
2022-08-17T02:04:29.381Z,10.47
2022-08-17T02:05:32.134Z,12.32
2022-08-17T02:06:53.573Z,8.88
2022-08-17T02:07:59.489Z,10.14
2022-08-17T02:09:03.245Z,10.49
2022-08-17T02:09:52.802Z,12.32
2022-08-17T02:10:55.392Z,14.40
2022-08-17T02:12:00.008Z,12.05
2022-08-17T02:13:04.494Z,12.36
2022-08-17T02:14:09.568Z,10.45
2022-08-17T02:15:12.119Z,10.38
2022-08-17T02:16:15.373Z,10.22
2022-08-17T02:17:17.739Z,9.47
2022-08-17T02:18:20.031Z,11.95
2022-08-17T02:19:22.221Z,12.95
2022-08-17T02:20:41.275Z,12.67
2022-08-17T02:21:30.573Z,12.13
2022-08-17T02:22:33.811Z,11.28
2022-08-17T02:23:39.600Z,11.87
2022-08-17T02:24:58.615Z,10.91
2022-08-17T02:25:47.802Z,13.38
2022-08-17T02:26:51.881Z,12.75
2022-08-17T02:27:54.313Z,12.88
2022-08-17T02:28:56.505Z,13.33
2022-08-17T02:30:00.709Z,11.93
2022-08-17T02:32:27.488Z,12.31
2022-08-17T02:33:22.707Z,11.28
2022-08-17T02:34:25.303Z,9.14
2022-08-17T02:35:27.822Z,12.97
2022-08-17T02:36:30.681Z,10.99
2022-08-17T02:37:33.110Z,9.77
2022-08-17T02:38:37.351Z,12.14
2022-08-17T02:39:39.911Z,12.94
2022-08-17T02:40:42.444Z,13.65
2022-08-17T02:41:46.649Z,9.70
2022-08-17T02:42:49.731Z,9.21
2022-08-17T02:43:52.255Z,9.60
2022-08-17T02:44:54.580Z,11.69
2022-08-17T02:45:57.459Z,9.15
2022-08-17T02:47:00.479Z,10.32
2022-08-17T02:48:03.556Z,9.43
2022-08-17T02:49:06.212Z,10.33
2022-08-17T02:50:11.385Z,14.18
2022-08-17T02:51:14.109Z,10.28
2022-08-17T02:52:16.459Z,11.19
2022-08-17T02:53:20.883Z,9.63
2022-08-17T02:54:41.387Z,9.81
2022-08-17T02:55:30.575Z,9.39
2022-08-17T02:56:33.201Z,11.46
2022-08-17T02:57:35.414Z,9.73
2022-08-17T02:58:37.861Z,11.00
2022-08-17T02:59:44.270Z,10.54
2022-08-17T03:00:46.126Z,11.44
2022-08-17T03:01:48.629Z,11.79
2022-08-17T03:02:51.603Z,13.66
2022-08-17T03:03:54.279Z,8.97
2022-08-17T03:04:56.787Z,8.40
2022-08-17T03:05:59.355Z,11.11
2022-08-17T03:07:03.674Z,10.27
2022-08-17T03:08:07.441Z,10.00
2022-08-17T03:09:11.586Z,11.13
2022-08-17T03:10:15.612Z,8.70
2022-08-17T03:11:18.037Z,11.99
2022-08-17T03:12:20.592Z,11.24
2022-08-17T03:13:23.391Z,9.82
2022-08-17T03:14:26.236Z,10.44
2022-08-17T03:15:31.780Z,9.03
2022-08-17T03:16:34.427Z,13.53
2022-08-17T03:17:37.187Z,8.61
2022-08-17T03:18:39.991Z,9.56
2022-08-17T03:19:42.912Z,12.30
2022-08-17T03:20:46.156Z,10.06
2022-08-17T03:21:55.169Z,12.69
2022-08-17T03:23:01.863Z,9.82
2022-08-17T03:24:00.976Z,8.54
2022-08-17T03:25:10.680Z,9.45
2022-08-17T03:26:12.300Z,12.15
2022-08-17T03:27:16.304Z,10.04
2022-08-17T03:28:18.873Z,10.47
2022-08-17T03:29:21.157Z,9.41
2022-08-17T03:30:25.933Z,7.75
2022-08-17T03:31:28.285Z,8.38
2022-08-17T03:32:34.121Z,10.05
2022-08-17T03:33:36.499Z,8.26
2022-08-17T03:34:38.768Z,11.39
2022-08-17T03:35:41.219Z,8.83
2022-08-17T03:36:44.210Z,10.82
2022-08-17T03:37:47.639Z,8.73
2022-08-17T03:38:51.999Z,9.70
2022-08-17T03:39:54.607Z,9.69
2022-08-17T03:40:59.867Z,8.30
2022-08-17T03:42:05.322Z,9.86
2022-08-17T03:43:09.818Z,9.41
2022-08-17T03:44:12.159Z,12.53
2022-08-17T03:45:17.309Z,11.91
2022-08-17T03:46:28.528Z,9.62
2022-08-17T03:47:24.158Z,9.61
2022-08-17T03:48:27.021Z,9.41
2022-08-17T03:49:29.221Z,8.55
2022-08-17T03:50:32.290Z,10.47
2022-08-17T03:51:34.585Z,7.61
2022-08-17T03:52:36.997Z,8.65
2022-08-17T03:53:55.018Z,12.01
2022-08-17T03:54:57.388Z,10.18
2022-08-17T03:56:01.418Z,11.21
2022-08-17T03:59:22.533Z,10.07
2022-08-17T04:00:25.576Z,9.96
2022-08-17T04:01:27.951Z,11.21
2022-08-17T04:02:32.039Z,9.56
2022-08-17T04:03:34.538Z,9.44
2022-08-17T04:04:37.695Z,8.78
2022-08-17T04:05:40.438Z,11.68
2022-08-17T04:06:43.137Z,9.05
2022-08-17T04:07:45.444Z,9.96
2022-08-17T04:08:47.761Z,10.57
2022-08-17T04:09:50.066Z,13.92
2022-08-17T04:10:52.477Z,10.59
2022-08-17T04:11:54.768Z,11.45
2022-08-17T04:12:59.206Z,10.23
2022-08-17T04:14:02.214Z,8.00
2022-08-17T04:15:06.809Z,9.74
2022-08-17T04:16:09.544Z,9.71
2022-08-17T04:17:12.026Z,10.80
2022-08-17T04:18:18.370Z,8.79
2022-08-17T04:19:20.725Z,10.81
2022-08-17T04:20:25.219Z,9.31
2022-08-17T04:21:27.720Z,12.27
2022-08-17T04:22:34.229Z,8.03
2022-08-17T04:23:34.784Z,8.48
2022-08-17T04:24:37.270Z,9.57
2022-08-17T04:25:42.913Z,12.66
2022-08-17T04:26:53.848Z,10.80
2022-08-17T04:27:49.986Z,9.96
2022-08-17T04:28:52.284Z,11.57
2022-08-17T04:29:55.944Z,8.11
2022-08-17T04:30:59.196Z,9.95
2022-08-17T04:32:02.388Z,8.74
2022-08-17T04:33:11.403Z,11.71
2022-08-17T04:34:13.988Z,13.11
2022-08-17T04:35:22.652Z,10.89
2022-08-17T04:36:26.775Z,8.06
2022-08-17T04:37:29.069Z,10.57
2022-08-17T04:38:37.194Z,8.73
2022-08-17T04:39:39.780Z,9.12
2022-08-17T04:40:43.055Z,12.03
2022-08-17T04:41:45.434Z,10.29
2022-08-17T04:43:03.253Z,10.75
2022-08-17T04:44:05.504Z,11.93
2022-08-17T04:45:08.619Z,11.45
2022-08-17T04:46:14.439Z,10.26
2022-08-17T04:47:16.847Z,10.69
2022-08-17T04:48:19.328Z,10.21
2022-08-17T04:49:21.650Z,10.77
2022-08-17T04:50:24.696Z,12.93
2022-08-17T04:51:39.851Z,11.27
2022-08-17T04:52:47.335Z,12.57
2022-08-17T04:53:54.381Z,10.70
2022-08-17T04:54:57.210Z,7.82
2022-08-17T04:55:59.686Z,8.43
2022-08-17T04:57:02.289Z,11.53
2022-08-17T04:58:04.733Z,12.03
2022-08-17T04:59:10.592Z,9.80
2022-08-17T05:00:14.182Z,8.56
2022-08-17T05:01:24.110Z,9.88
2022-08-17T05:02:23.603Z,8.67
2022-08-17T05:03:26.277Z,9.71
2022-08-17T05:04:34.204Z,10.05
2022-08-17T05:05:35.895Z,7.86
2022-08-17T05:06:38.312Z,8.57
2022-08-17T05:07:40.738Z,11.35
2022-08-17T05:08:43.131Z,8.53
2022-08-17T05:09:45.552Z,8.45
2022-08-17T05:10:49.094Z,9.04
2022-08-17T05:11:51.497Z,11.02
2022-08-17T05:12:58.824Z,7.77
2022-08-17T05:14:01.285Z,8.14
2022-08-17T05:15:04.910Z,8.02
2022-08-17T05:16:07.644Z,7.61
2022-08-17T05:17:11.181Z,8.67
2022-08-17T05:18:14.766Z,10.35
2022-08-17T05:19:17.060Z,10.44
2022-08-17T05:20:21.943Z,11.35
2022-08-17T05:21:26.410Z,10.36
2022-08-17T05:22:28.925Z,9.99
2022-08-17T05:23:41.592Z,12.79
2022-08-17T05:24:42.728Z,8.79
2022-08-17T05:25:43.044Z,8.85
2022-08-17T05:26:47.386Z,8.66
2022-08-17T05:27:52.862Z,9.85
2022-08-17T05:28:58.539Z,10.21
2022-08-17T05:30:02.376Z,8.86
2022-08-17T05:31:05.027Z,10.64
2022-08-17T05:32:38.089Z,10.95
2022-08-17T05:33:17.067Z,8.46
2022-08-17T05:34:19.529Z,9.82
2022-08-17T05:35:23.541Z,7.29
2022-08-17T05:36:42.576Z,10.04
2022-08-17T05:37:30.605Z,10.94
2022-08-17T05:38:33.383Z,9.35
2022-08-17T05:39:35.748Z,9.75
2022-08-17T05:40:38.803Z,11.00
2022-08-17T05:41:41.237Z,9.04
2022-08-17T05:42:43.729Z,9.67
2022-08-17T05:43:46.213Z,10.00
2022-08-17T05:44:48.278Z,7.91
2022-08-17T05:45:55.703Z,12.72
2022-08-17T05:47:00.802Z,8.92
2022-08-17T05:48:03.328Z,10.04
2022-08-17T05:49:07.345Z,11.79
2022-08-17T05:50:12.891Z,11.86
2022-08-17T05:51:40.162Z,8.41
2022-08-17T05:52:46.088Z,9.37
2022-08-17T05:54:10.965Z,10.59
2022-08-17T05:55:19.911Z,10.36
2022-08-17T05:56:37.835Z,9.28
2022-08-17T05:57:54.215Z,10.31
2022-08-17T05:59:09.889Z,11.59
2022-08-17T06:00:30.728Z,12.28
2022-08-17T06:03:19.580Z,11.60
2022-08-17T06:04:51.483Z,8.28
2022-08-17T06:05:59.942Z,9.90
2022-08-17T06:08:41.172Z,11.03
2022-08-17T06:09:47.071Z,10.16
2022-08-17T06:10:58.970Z,9.99
2022-08-17T06:12:14.478Z,7.41
2022-08-17T06:13:55.268Z,9.51
2022-08-17T06:15:15.594Z,13.15
2022-08-17T06:16:32.900Z,13.35
2022-08-17T06:17:28.036Z,12.33
2022-08-17T06:19:55.965Z,10.02
2022-08-17T06:21:02.257Z,10.47
2022-08-17T06:22:07.057Z,9.57
2022-08-17T06:23:13.010Z,8.02
2022-08-17T06:24:31.253Z,8.74
2022-08-17T06:25:40.415Z,12.31
2022-08-17T06:26:43.907Z,8.87
2022-08-17T06:27:53.581Z,7.90
2022-08-17T06:29:00.432Z,7.81
2022-08-17T06:30:24.734Z,8.32
2022-08-17T06:31:30.602Z,10.12
2022-08-17T06:32:35.256Z,8.71
2022-08-17T06:33:39.636Z,11.06
2022-08-17T06:34:44.371Z,10.48
2022-08-17T06:35:55.998Z,9.05
2022-08-17T06:37:32.959Z,11.28
2022-08-17T06:38:45.086Z,10.71
2022-08-17T06:39:56.891Z,8.44
2022-08-17T06:41:23.087Z,8.45
2022-08-17T06:43:00.874Z,9.52
2022-08-17T06:44:04.366Z,8.17
2022-08-17T06:45:10.309Z,11.61
2022-08-17T06:46:35.733Z,8.71
2022-08-17T06:47:50.873Z,7.60
2022-08-17T06:49:03.300Z,10.59
2022-08-17T06:50:15.171Z,13.23
2022-08-17T06:51:31.986Z,9.01
2022-08-17T06:52:46.495Z,9.63
2022-08-17T06:54:00.731Z,11.16
2022-08-17T06:55:09.777Z,10.04
2022-08-17T06:57:47.632Z,11.80
2022-08-17T06:58:52.008Z,10.92
2022-08-17T07:00:00.791Z,15.26
2022-08-17T07:01:10.678Z,11.11
2022-08-17T07:02:16.740Z,17.87
2022-08-17T07:03:38.073Z,12.81
2022-08-17T07:07:09.520Z,16.42
2022-08-17T07:08:36.156Z,20.76
2022-08-17T07:09:38.830Z,19.19
2022-08-17T07:12:04.303Z,18.01
2022-08-17T07:13:39.149Z,20.84
2022-08-17T07:14:54.219Z,22.52
2022-08-17T07:16:09.118Z,23.33
2022-08-17T07:17:14.916Z,22.78
2022-08-17T07:18:17.325Z,34.88
2022-08-17T07:19:23.087Z,23.27
2022-08-17T07:20:27.433Z,22.74
2022-08-17T07:21:36.581Z,26.06
2022-08-17T07:22:57.493Z,27.38
2022-08-17T07:23:57.333Z,26.43
2022-08-17T07:25:02.600Z,28.74
2022-08-17T07:26:10.514Z,20.76
2022-08-17T07:27:22.695Z,15.70
2022-08-17T07:28:27.387Z,15.06
2022-08-17T07:29:32.998Z,11.85
2022-08-17T07:30:45.695Z,16.52
2022-08-17T07:31:44.769Z,12.93
2022-08-17T07:33:02.219Z,12.83
2022-08-17T07:34:13.586Z,13.92
2022-08-17T07:35:37.900Z,15.11
2022-08-17T07:36:41.911Z,14.19
2022-08-17T07:38:57.541Z,13.44
2022-08-17T07:41:13.347Z,12.03
2022-08-17T07:42:15.661Z,9.61
2022-08-17T07:43:24.547Z,11.79
2022-08-17T07:44:26.991Z,8.67
2022-08-17T07:45:30.854Z,8.04
2022-08-17T07:46:34.673Z,13.45
2022-08-17T07:47:37.316Z,10.02
2022-08-17T07:48:42.108Z,7.39
2022-08-17T07:49:44.872Z,9.76
2022-08-17T07:50:50.574Z,7.19
2022-08-17T07:51:57.072Z,7.54
2022-08-17T07:53:19.583Z,7.74
2022-08-17T07:54:24.954Z,6.51
2022-08-17T07:56:49.510Z,7.17
2022-08-17T07:57:57.734Z,8.76
2022-08-17T07:59:20.476Z,7.22
2022-08-17T08:00:29.141Z,8.86
2022-08-17T08:01:27.968Z,9.19
2022-08-17T08:02:35.794Z,7.24
2022-08-17T08:03:44.320Z,8.82
2022-08-17T08:05:00.538Z,11.60
2022-08-17T08:05:57.679Z,9.54
2022-08-17T08:07:04.139Z,8.01
2022-08-17T08:08:22.019Z,7.46
2022-08-17T08:09:30.703Z,6.21
2022-08-17T08:10:38.271Z,9.06
2022-08-17T08:11:44.344Z,8.32
2022-08-17T08:12:53.719Z,8.80
2022-08-17T08:13:54.060Z,8.13
2022-08-17T08:15:00.786Z,6.82
2022-08-17T08:16:18.676Z,6.31
2022-08-17T08:17:24.688Z,7.15
2022-08-17T08:18:39.704Z,9.22
2022-08-17T08:19:37.271Z,6.77
2022-08-17T08:20:51.861Z,9.91
2022-08-17T08:21:51.528Z,8.44
2022-08-17T08:24:30.965Z,11.49
2022-08-17T08:26:07.113Z,5.79
2022-08-17T08:27:49.558Z,8.21
2022-08-17T08:30:18.951Z,6.14
2022-08-17T08:31:50.982Z,7.10
2022-08-17T08:33:13.918Z,9.48
2022-08-17T08:34:44.625Z,14.60
2022-08-17T08:35:45.525Z,8.91
2022-08-17T08:37:16.343Z,9.20
2022-08-17T08:38:32.111Z,7.14
2022-08-17T08:41:19.403Z,8.06
2022-08-17T08:42:34.423Z,6.88
2022-08-17T08:43:53.339Z,10.82
2022-08-17T08:45:04.463Z,9.99
2022-08-17T08:46:25.567Z,6.94
2022-08-17T08:47:37.539Z,8.97
2022-08-17T08:48:58.316Z,10.88
2022-08-17T08:50:30.133Z,8.71
2022-08-17T08:51:41.206Z,7.93
2022-08-17T08:52:53.364Z,8.19
2022-08-17T08:54:02.331Z,8.59
2022-08-17T08:55:23.432Z,8.32
2022-08-17T08:56:39.738Z,8.49
2022-08-17T08:57:45.670Z,8.61
2022-08-17T08:58:57.607Z,10.66
2022-08-17T09:00:18.448Z,9.39
2022-08-17T09:03:02.153Z,6.86
2022-08-17T09:04:25.259Z,8.37
2022-08-17T09:05:24.872Z,8.03
2022-08-17T09:06:49.108Z,9.05
2022-08-17T09:08:13.249Z,6.18
2022-08-17T09:09:37.183Z,8.72
2022-08-17T09:10:52.232Z,7.82
2022-08-17T09:12:03.564Z,8.02
2022-08-17T09:13:20.840Z,13.25
2022-08-17T09:14:28.463Z,10.12
2022-08-17T09:15:34.642Z,7.83
2022-08-17T09:16:49.320Z,10.02
2022-08-17T09:19:21.295Z,7.76
2022-08-17T09:21:48.373Z,8.60
2022-08-17T09:22:54.919Z,6.84
2022-08-17T09:24:03.676Z,8.37
2022-08-17T09:25:21.519Z,8.64
2022-08-17T09:26:42.798Z,11.04
2022-08-17T09:29:15.219Z,9.02
2022-08-17T09:30:19.857Z,8.12
2022-08-17T09:31:29.953Z,9.51
2022-08-17T09:32:42.217Z,9.90
2022-08-17T09:33:46.768Z,8.69
2022-08-17T09:34:52.264Z,7.66
2022-08-17T09:36:07.442Z,8.73
2022-08-17T09:37:31.733Z,8.67
2022-08-17T09:38:40.449Z,9.21
2022-08-17T09:39:46.344Z,10.28
2022-08-17T09:42:06.363Z,9.12
2022-08-17T09:43:12.352Z,8.78
2022-08-17T09:44:41.278Z,8.61
2022-08-17T09:45:49.812Z,8.02
2022-08-17T09:47:01.785Z,11.81
2022-08-17T09:48:18.180Z,9.80
2022-08-17T09:49:30.110Z,7.79
2022-08-17T09:51:03.160Z,9.96
2022-08-17T09:51:49.351Z,10.27
2022-08-17T09:52:55.235Z,8.37
2022-08-17T09:54:21.017Z,6.29
2022-08-17T09:55:05.591Z,7.22
2022-08-17T09:56:28.950Z,9.35
2022-08-17T09:57:53.371Z,10.40
2022-08-17T09:59:05.199Z,8.19
2022-08-17T10:00:26.662Z,7.99
2022-08-17T10:01:38.775Z,11.02
2022-08-17T10:03:00.158Z,8.13
2022-08-17T10:04:29.314Z,7.92
2022-08-17T10:05:50.594Z,10.99
2022-08-17T10:07:20.397Z,12.51
2022-08-17T10:08:43.345Z,10.33
2022-08-17T10:11:33.566Z,11.88
2022-08-17T10:12:53.260Z,8.10
2022-08-17T10:14:35.960Z,13.03
2022-08-17T10:15:18.724Z,13.17
2022-08-17T10:16:34.046Z,9.38
2022-08-17T10:17:42.962Z,14.12
2022-08-17T10:19:14.440Z,13.15
2022-08-17T10:20:27.332Z,9.03
2022-08-17T10:21:32.936Z,12.07
2022-08-17T10:22:55.631Z,9.95
2022-08-17T10:25:22.764Z,7.84
2022-08-17T10:26:26.231Z,9.64
2022-08-17T10:27:44.268Z,8.49
2022-08-17T10:29:11.551Z,7.98
2022-08-17T10:30:19.122Z,8.46
2022-08-17T10:31:34.765Z,9.45
2022-08-17T10:32:39.113Z,12.15
2022-08-17T10:35:36.272Z,8.40
2022-08-17T10:36:48.121Z,9.34
2022-08-17T10:38:10.468Z,8.49
2022-08-17T10:39:25.457Z,8.16
2022-08-17T10:40:47.354Z,8.52
2022-08-17T10:41:53.409Z,9.09
2022-08-17T10:43:11.617Z,6.42
2022-08-17T10:44:38.575Z,7.77
2022-08-17T10:45:39.731Z,8.79
2022-08-17T10:47:13.311Z,9.77
2022-08-17T10:48:34.674Z,10.54
2022-08-17T10:51:02.880Z,8.27
2022-08-17T10:52:25.017Z,9.33
2022-08-17T10:53:40.356Z,7.74
2022-08-17T10:54:58.801Z,9.98
2022-08-17T10:56:15.446Z,6.83
2022-08-17T10:57:33.261Z,10.43
2022-08-17T10:58:54.144Z,8.53
2022-08-17T10:59:58.142Z,8.48
2022-08-17T11:01:00.727Z,9.62
2022-08-17T11:02:16.337Z,9.62
2022-08-17T11:03:22.377Z,11.62
2022-08-17T11:04:36.944Z,7.37
2022-08-17T11:06:08.986Z,7.28
2022-08-17T11:07:34.457Z,9.55
2022-08-17T11:10:30.483Z,9.88
2022-08-17T11:11:51.356Z,7.77
2022-08-17T11:13:14.224Z,6.72
2022-08-17T11:14:38.297Z,9.15
2022-08-17T11:16:21.092Z,7.49
2022-08-17T11:17:30.315Z,8.88
2022-08-17T11:18:41.900Z,11.33
2022-08-17T11:20:08.439Z,7.80
2022-08-17T11:21:38.840Z,6.81
2022-08-17T11:23:02.747Z,7.42
2022-08-17T11:25:40.778Z,8.46
2022-08-17T11:26:46.778Z,9.33
2022-08-17T11:27:53.118Z,11.22
2022-08-17T11:28:59.114Z,9.57
2022-08-17T11:30:13.787Z,13.68
2022-08-17T11:31:41.590Z,9.26
2022-08-17T11:32:54.651Z,10.35
2022-08-17T11:34:00.287Z,10.34
2022-08-17T11:36:35.099Z,10.75
2022-08-17T11:37:52.699Z,11.80
2022-08-17T11:39:22.481Z,7.72
2022-08-17T11:40:38.481Z,9.26
2022-08-17T11:42:03.986Z,9.49
2022-08-17T11:43:26.561Z,12.44
2022-08-17T11:44:53.930Z,7.24
2022-08-17T11:45:59.798Z,10.07
2022-08-17T11:47:11.137Z,8.38
2022-08-17T11:48:27.635Z,8.14
2022-08-17T11:49:44.836Z,7.51
2022-08-17T11:51:15.142Z,12.90
2022-08-17T11:52:42.191Z,10.27
2022-08-17T11:53:50.266Z,8.03
2022-08-17T11:54:52.829Z,10.71
2022-08-17T11:55:58.945Z,8.30
2022-08-17T11:58:45.951Z,8.17
2022-08-17T11:59:54.156Z,9.06
2022-08-17T12:00:59.386Z,9.31
2022-08-17T12:02:22.538Z,6.98
2022-08-17T12:03:34.262Z,9.14
2022-08-17T12:04:37.259Z,8.39
2022-08-17T12:05:40.171Z,8.56
2022-08-17T12:06:52.550Z,8.35
2022-08-17T12:08:07.718Z,9.61
2022-08-17T12:09:13.772Z,7.94
2022-08-17T12:10:20.593Z,8.21
2022-08-17T12:11:57.775Z,8.12
2022-08-17T12:12:31.639Z,8.96
2022-08-17T12:13:52.528Z,7.84
2022-08-17T12:15:12.533Z,7.93
2022-08-17T12:16:01.540Z,11.31
2022-08-17T12:17:07.356Z,9.58
2022-08-17T12:18:21.422Z,10.93
2022-08-17T12:19:23.729Z,9.16
2022-08-17T12:20:40.269Z,8.61
2022-08-17T12:22:01.489Z,9.98
2022-08-17T12:23:07.587Z,10.36
2022-08-17T12:24:22.026Z,7.48
2022-08-17T12:25:31.070Z,7.07
2022-08-17T12:26:36.444Z,9.33
2022-08-17T12:28:58.534Z,8.94
2022-08-17T12:30:12.279Z,8.26
2022-08-17T12:31:20.681Z,8.70
2022-08-17T12:32:26.637Z,8.61
2022-08-17T12:33:29.214Z,6.16
2022-08-17T12:34:38.230Z,10.29
2022-08-17T12:35:41.080Z,7.72
2022-08-17T12:36:46.895Z,7.99
2022-08-17T12:37:49.727Z,8.11
2022-08-17T12:38:58.663Z,7.93
2022-08-17T12:40:08.862Z,9.05
2022-08-17T12:41:13.364Z,7.34
2022-08-17T12:42:27.780Z,8.66
2022-08-17T12:43:30.101Z,9.92
2022-08-17T12:45:49.325Z,7.23
2022-08-17T12:47:01.363Z,10.03
2022-08-17T12:49:24.096Z,6.13
2022-08-17T12:50:28.638Z,9.43
2022-08-17T12:51:31.398Z,8.37
2022-08-17T12:52:37.381Z,5.85
2022-08-17T12:53:43.197Z,6.31
2022-08-17T12:54:51.982Z,7.61
2022-08-17T12:55:55.422Z,9.08
2022-08-17T12:57:01.675Z,9.56
2022-08-17T12:58:05.975Z,8.87
2022-08-17T12:59:10.147Z,9.74
2022-08-17T13:00:20.554Z,9.71
2022-08-17T13:01:23.495Z,8.44
2022-08-17T13:02:32.207Z,10.89
2022-08-17T13:03:49.616Z,6.01
2022-08-17T13:04:52.150Z,7.71
2022-08-17T13:05:57.895Z,7.85
2022-08-17T13:07:00.491Z,6.69
2022-08-17T13:08:15.280Z,9.40
2022-08-17T13:09:21.283Z,13.43
2022-08-17T13:10:33.088Z,7.84
2022-08-17T13:11:35.100Z,11.11
2022-08-17T13:12:38.892Z,6.95
2022-08-17T13:14:57.114Z,7.71
2022-08-17T13:16:05.564Z,10.97
2022-08-17T13:17:13.157Z,9.41
2022-08-17T13:18:37.814Z,8.86
2022-08-17T13:19:43.861Z,6.51
2022-08-17T13:20:51.800Z,10.06
2022-08-17T13:22:00.460Z,8.44
2022-08-17T13:23:11.391Z,8.54
2022-08-17T13:24:13.724Z,10.42
2022-08-17T13:25:16.340Z,5.85
2022-08-17T13:26:22.666Z,7.93
2022-08-17T13:27:28.146Z,14.13
2022-08-17T13:28:36.381Z,7.60
2022-08-17T13:29:41.855Z,11.82
2022-08-17T13:30:44.527Z,11.41
2022-08-17T13:31:52.889Z,7.21
2022-08-17T13:32:51.828Z,7.90
2022-08-17T13:34:14.650Z,4.94
2022-08-17T13:35:39.870Z,8.83
2022-08-17T13:36:42.957Z,9.71
2022-08-17T13:37:59.858Z,5.74
2022-08-17T13:39:15.292Z,7.61
2022-08-17T13:40:22.347Z,9.17
2022-08-17T13:41:34.427Z,6.68
2022-08-17T13:42:53.563Z,5.88
2022-08-17T13:43:48.231Z,11.21
2022-08-17T13:44:50.683Z,9.48
2022-08-17T13:45:53.332Z,8.30
2022-08-17T13:46:57.222Z,7.08
2022-08-17T13:48:14.007Z,8.05
2022-08-17T13:49:19.791Z,6.40
2022-08-17T13:50:22.603Z,5.74
2022-08-17T13:51:28.511Z,6.46
2022-08-17T13:52:40.947Z,10.43
2022-08-17T13:53:46.903Z,6.38
2022-08-17T13:54:51.188Z,8.14
2022-08-17T13:56:01.627Z,7.81
2022-08-17T13:57:18.587Z,7.89
2022-08-17T13:58:26.834Z,7.43
2022-08-17T13:59:53.463Z,8.84
2022-08-17T14:00:37.594Z,6.27
2022-08-17T14:01:53.348Z,7.87
2022-08-17T14:02:56.008Z,5.84
2022-08-17T14:04:00.791Z,6.55
2022-08-17T14:05:06.310Z,9.44
2022-08-17T14:06:08.863Z,6.61
2022-08-17T14:07:14.614Z,5.66
2022-08-17T14:08:20.175Z,6.88
2022-08-17T14:09:37.378Z,7.84
2022-08-17T14:10:40.221Z,6.94
2022-08-17T14:11:44.886Z,8.29
2022-08-17T14:12:48.399Z,6.82
2022-08-17T14:13:50.733Z,10.87
2022-08-17T14:14:54.483Z,8.99
2022-08-17T14:15:57.042Z,7.66
2022-08-17T14:16:59.921Z,7.78
2022-08-17T14:18:03.104Z,6.12
2022-08-17T14:19:05.683Z,6.39
2022-08-17T14:20:12.304Z,8.46
2022-08-17T14:21:14.721Z,6.55
2022-08-17T14:23:54.553Z,7.83
2022-08-17T14:24:49.348Z,6.43
2022-08-17T14:25:52.217Z,8.31
2022-08-17T14:26:55.835Z,10.65
2022-08-17T14:27:58.474Z,12.49
2022-08-17T14:29:01.414Z,5.90
2022-08-17T14:30:05.369Z,7.74
2022-08-17T14:31:08.792Z,10.43
2022-08-17T14:32:19.946Z,5.99
2022-08-17T14:33:22.375Z,9.12
2022-08-17T14:34:25.467Z,7.40
2022-08-17T14:35:28.332Z,7.56
2022-08-17T14:36:31.978Z,9.52
2022-08-17T14:37:34.685Z,8.51
2022-08-17T14:38:37.123Z,7.73
2022-08-17T14:39:39.388Z,7.40
2022-08-17T14:40:42.378Z,6.97
2022-08-17T14:41:46.631Z,9.04
2022-08-17T14:42:49.975Z,9.01
2022-08-17T14:43:52.570Z,6.63
2022-08-17T14:44:55.840Z,7.47
2022-08-17T14:45:59.989Z,7.29
2022-08-17T14:47:02.425Z,7.60
2022-08-17T14:48:05.929Z,7.18
2022-08-17T14:49:10.904Z,6.86
2022-08-17T14:50:15.444Z,9.42
2022-08-17T14:51:20.844Z,7.58
2022-08-17T14:52:23.172Z,8.41
2022-08-17T14:53:26.947Z,10.94
2022-08-17T14:54:33.996Z,7.38
2022-08-17T14:55:34.334Z,10.21
2022-08-17T14:56:39.004Z,8.14
2022-08-17T14:57:41.115Z,8.26
2022-08-17T14:58:43.391Z,6.07
2022-08-17T14:59:45.993Z,6.95
2022-08-17T15:00:48.768Z,15.57
2022-08-17T15:01:51.093Z,10.73
2022-08-17T15:02:56.737Z,10.37
2022-08-17T15:03:59.137Z,13.51
2022-08-17T15:05:03.888Z,11.09
2022-08-17T15:06:08.610Z,11.28
2022-08-17T15:07:11.974Z,10.59
2022-08-17T15:08:16.019Z,8.25
2022-08-17T15:09:18.460Z,10.51
2022-08-17T15:10:23.978Z,12.14
2022-08-17T15:11:26.995Z,14.92
2022-08-17T15:12:33.097Z,12.87
2022-08-17T15:13:35.466Z,13.09
2022-08-17T15:14:39.584Z,14.06
2022-08-17T15:15:42.137Z,12.43
2022-08-17T15:16:45.301Z,10.48
2022-08-17T15:17:47.662Z,10.97
2022-08-17T15:18:50.140Z,9.38
2022-08-17T15:19:52.795Z,10.71
2022-08-17T15:20:55.809Z,10.33
2022-08-17T15:21:58.271Z,13.95
2022-08-17T15:23:02.170Z,11.38
2022-08-17T15:24:05.418Z,13.28
2022-08-17T15:25:11.130Z,11.49
2022-08-17T15:26:13.766Z,11.49
2022-08-17T15:27:16.332Z,10.35
2022-08-17T15:28:21.115Z,12.26
2022-08-17T15:29:23.579Z,10.43
2022-08-17T15:30:27.956Z,11.28
2022-08-17T15:31:32.114Z,10.41
2022-08-17T15:32:37.955Z,8.35
2022-08-17T15:33:40.347Z,12.88
2022-08-17T15:34:43.060Z,8.23
2022-08-17T15:35:51.346Z,8.87
2022-08-17T15:36:53.787Z,8.77
2022-08-17T15:38:06.239Z,7.11
2022-08-17T15:39:05.566Z,7.68
2022-08-17T15:40:11.913Z,8.29
2022-08-17T15:41:16.202Z,8.04
2022-08-17T15:42:19.392Z,8.82
2022-08-17T15:43:28.294Z,9.31